sensor_id;sensor_type;location;lat;lon;timestamp;temperature;humidity
11214;DHT22;5664;48.606;13.456;2023-02-01T00:01:17;18.40;89.00
11214;DHT22;5664;48.606;13.456;2023-02-01T00:03:42;18.30;89.10
11214;DHT22;5664;48.606;13.456;2023-02-01T00:06:08;18.40;89.00
11214;DHT22;5664;48.606;13.456;2023-02-01T00:08:34;18.50;89.20
11214;DHT22;5664;48.606;13.456;2023-02-01T00:11:00;18.50;89.20
11214;DHT22;5664;48.606;13.456;2023-02-01T00:13:29;18.40;89.00
11214;DHT22;5664;48.606;13.456;2023-02-01T00:16:02;18.40;88.90
11214;DHT22;5664;48.606;13.456;2023-02-01T00:18:27;18.50;88.90
11214;DHT22;5664;48.606;13.456;2023-02-01T00:20:53;18.40;89.00
11214;DHT22;5664;48.606;13.456;2023-02-01T00:23:18;18.30;88.80
11214;DHT22;5664;48.606;13.456;2023-02-01T00:25:44;18.40;89.10
11214;DHT22;5664;48.606;13.456;2023-02-01T00:28:09;18.50;89.00
11214;DHT22;5664;48.606;13.456;2023-02-01T00:30:34;18.40;89.00
11214;DHT22;5664;48.606;13.456;2023-02-01T00:33:00;18.40;88.90
11214;DHT22;5664;48.606;13.456;2023-02-01T00:35:25;18.40;88.80
11214;DHT22;5664;48.606;13.456;2023-02-01T00:37:51;18.40;88.90
11214;DHT22;5664;48.606;13.456;2023-02-01T00:40:16;18.40;88.90
11214;DHT22;5664;48.606;13.456;2023-02-01T00:42:42;18.30;88.70
11214;DHT22;5664;48.606;13.456;2023-02-01T00:45:07;18.30;88.60
11214;DHT22;5664;48.606;13.456;2023-02-01T00:47:33;18.30;88.60
11214;DHT22;5664;48.606;13.456;2023-02-01T00:49:58;18.40;88.90
11214;DHT22;5664;48.606;13.456;2023-02-01T00:52:24;18.40;89.00
11214;DHT22;5664;48.606;13.456;2023-02-01T00:57:15;18.20;87.70
11214;DHT22;5664;48.606;13.456;2023-02-01T00:59:41;18.30;88.90
11214;DHT22;5664;48.606;13.456;2023-02-01T01:02:06;18.40;89.00
11214;DHT22;5664;48.606;13.456;2023-02-01T01:04:31;18.30;89.70
11214;DHT22;5664;48.606;13.456;2023-02-01T01:06:57;18.40;88.90
11214;DHT22;5664;48.606;13.456;2023-02-01T01:09:22;18.30;88.90
11214;DHT22;5664;48.606;13.456;2023-02-01T01:11:48;18.30;88.80
11214;DHT22;5664;48.606;13.456;2023-02-01T01:14:13;18.30;88.70
11214;DHT22;5664;48.606;13.456;2023-02-01T01:16:39;18.30;89.00
11214;DHT22;5664;48.606;13.456;2023-02-01T01:19:04;18.30;88.90
11214;DHT22;5664;48.606;13.456;2023-02-01T01:21:31;18.20;88.90
11214;DHT22;5664;48.606;13.456;2023-02-01T01:23:56;18.30;88.80
11214;DHT22;5664;48.606;13.456;2023-02-01T01:26:23;18.30;88.80
11214;DHT22;5664;48.606;13.456;2023-02-01T01:31:16;18.10;87.60
11214;DHT22;5664;48.606;13.456;2023-02-01T01:33:41;18.20;88.70
11214;DHT22;5664;48.606;13.456;2023-02-01T01:36:09;18.20;88.80
11214;DHT22;5664;48.606;13.456;2023-02-01T01:38:38;18.30;88.70
11214;DHT22;5664;48.606;13.456;2023-02-01T01:41:03;18.30;88.60
11214;DHT22;5664;48.606;13.456;2023-02-01T01:43:49;18.10;88.60
11214;DHT22;5664;48.606;13.456;2023-02-01T01:46:15;18.10;87.80
11214;DHT22;5664;48.606;13.456;2023-02-01T01:48:41;18.30;88.60
11214;DHT22;5664;48.606;13.456;2023-02-01T01:51:07;18.20;88.90
11214;DHT22;5664;48.606;13.456;2023-02-01T01:53:37;18.20;88.70
11214;DHT22;5664;48.606;13.456;2023-02-01T01:56:03;18.20;88.60
11214;DHT22;5664;48.606;13.456;2023-02-01T01:58:29;18.10;88.50
11214;DHT22;5664;48.606;13.456;2023-02-01T02:00:57;18.20;88.40
11214;DHT22;5664;48.606;13.456;2023-02-01T02:03:36;18.20;88.60
11214;DHT22;5664;48.606;13.456;2023-02-01T02:06:03;18.10;87.80
11214;DHT22;5664;48.606;13.456;2023-02-01T02:08:30;18.10;88.40
11214;DHT22;5664;48.606;13.456;2023-02-01T02:10:56;18.10;88.60
11214;DHT22;5664;48.606;13.456;2023-02-01T02:13:28;18.20;88.10
11214;DHT22;5664;48.606;13.456;2023-02-01T02:18:46;18.00;87.60
11214;DHT22;5664;48.606;13.456;2023-02-01T02:21:14;18.10;88.40
11214;DHT22;5664;48.606;13.456;2023-02-01T02:23:47;18.00;87.60
11214;DHT22;5664;48.606;13.456;2023-02-01T02:31:36;18.00;87.60
11214;DHT22;5664;48.606;13.456;2023-02-01T02:39:05;18.00;87.60
11214;DHT22;5664;48.606;13.456;2023-02-01T02:41:56;18.00;87.60
11214;DHT22;5664;48.606;13.456;2023-02-01T02:44:44;18.10;88.50
11214;DHT22;5664;48.606;13.456;2023-02-01T02:50:01;18.00;87.60
11214;DHT22;5664;48.606;13.456;2023-02-01T02:52:50;18.10;88.40
11214;DHT22;5664;48.606;13.456;2023-02-01T02:55:35;18.00;88.50
11214;DHT22;5664;48.606;13.456;2023-02-01T02:58:02;18.10;88.50
11214;DHT22;5664;48.606;13.456;2023-02-01T03:00:48;18.00;88.40
11214;DHT22;5664;48.606;13.456;2023-02-01T03:03:35;18.00;87.90
11214;DHT22;5664;48.606;13.456;2023-02-01T03:06:19;18.00;88.40
11214;DHT22;5664;48.606;13.456;2023-02-01T03:08:44;18.00;88.60
11214;DHT22;5664;48.606;13.456;2023-02-01T03:11:13;18.00;88.50
11214;DHT22;5664;48.606;13.456;2023-02-01T03:16:20;17.90;87.70
11214;DHT22;5664;48.606;13.456;2023-02-01T03:18:57;17.90;87.50
11214;DHT22;5664;48.606;13.456;2023-02-01T03:21:28;17.90;87.60
11214;DHT22;5664;48.606;13.456;2023-02-01T03:23:55;17.90;87.60
11214;DHT22;5664;48.606;13.456;2023-02-01T03:26:21;18.00;88.60
11214;DHT22;5664;48.606;13.456;2023-02-01T03:28:56;18.00;88.40
11214;DHT22;5664;48.606;13.456;2023-02-01T03:31:23;17.80;88.40
11214;DHT22;5664;48.606;13.456;2023-02-01T03:33:48;18.00;88.40
11214;DHT22;5664;48.606;13.456;2023-02-01T03:38:50;17.80;87.60
11214;DHT22;5664;48.606;13.456;2023-02-01T03:41:18;17.80;87.80
11214;DHT22;5664;48.606;13.456;2023-02-01T03:46:14;17.80;87.60
11214;DHT22;5664;48.606;13.456;2023-02-01T03:48:42;18.00;88.50
11214;DHT22;5664;48.606;13.456;2023-02-01T03:51:09;17.80;88.30
11214;DHT22;5664;48.606;13.456;2023-02-01T03:53:36;17.90;88.30
11214;DHT22;5664;48.606;13.456;2023-02-01T03:56:01;17.90;88.40
11214;DHT22;5664;48.606;13.456;2023-02-01T03:58:27;17.80;88.50
11214;DHT22;5664;48.606;13.456;2023-02-01T04:00:54;17.80;88.50
11214;DHT22;5664;48.606;13.456;2023-02-01T04:03:20;17.90;88.30
11214;DHT22;5664;48.606;13.456;2023-02-01T04:05:47;17.90;88.30
11214;DHT22;5664;48.606;13.456;2023-02-01T04:08:12;17.90;88.30
11214;DHT22;5664;48.606;13.456;2023-02-01T04:10:38;17.90;88.40
11214;DHT22;5664;48.606;13.456;2023-02-01T04:13:03;17.90;88.60
11214;DHT22;5664;48.606;13.456;2023-02-01T04:15:29;17.90;88.50
11214;DHT22;5664;48.606;13.456;2023-02-01T04:17:54;17.90;88.60
11214;DHT22;5664;48.606;13.456;2023-02-01T04:20:20;18.10;88.70
11214;DHT22;5664;48.606;13.456;2023-02-01T04:22:45;17.80;88.50
11214;DHT22;5664;48.606;13.456;2023-02-01T04:25:11;17.90;88.50
11214;DHT22;5664;48.606;13.456;2023-02-01T04:27:36;17.80;88.40
11214;DHT22;5664;48.606;13.456;2023-02-01T04:30:03;18.00;88.60
11214;DHT22;5664;48.606;13.456;2023-02-01T04:32:28;17.70;88.30
11214;DHT22;5664;48.606;13.456;2023-02-01T04:34:54;17.90;88.70
11214;DHT22;5664;48.606;13.456;2023-02-01T04:37:19;18.20;88.80
11214;DHT22;5664;48.606;13.456;2023-02-01T04:39:45;17.80;88.60
11214;DHT22;5664;48.606;13.456;2023-02-01T04:42:10;17.80;88.40
11214;DHT22;5664;48.606;13.456;2023-02-01T04:44:36;17.80;88.50
11214;DHT22;5664;48.606;13.456;2023-02-01T04:47:07;17.90;87.80
11214;DHT22;5664;48.606;13.456;2023-02-01T04:49:32;17.80;88.40
11214;DHT22;5664;48.606;13.456;2023-02-01T04:51:57;18.00;88.40
11214;DHT22;5664;48.606;13.456;2023-02-01T04:54:23;18.00;88.50
11214;DHT22;5664;48.606;13.456;2023-02-01T04:56:48;17.80;88.30
11214;DHT22;5664;48.606;13.456;2023-02-01T04:59:14;17.90;90.70
11214;DHT22;5664;48.606;13.456;2023-02-01T05:01:39;17.80;88.50
11214;DHT22;5664;48.606;13.456;2023-02-01T05:04:05;17.70;88.30
11214;DHT22;5664;48.606;13.456;2023-02-01T05:06:30;17.90;88.60
11214;DHT22;5664;48.606;13.456;2023-02-01T05:08:56;17.80;89.40
11214;DHT22;5664;48.606;13.456;2023-02-01T05:11:21;18.10;88.50
11214;DHT22;5664;48.606;13.456;2023-02-01T05:14:05;17.80;87.90
11214;DHT22;5664;48.606;13.456;2023-02-01T05:16:31;17.80;89.30
11214;DHT22;5664;48.606;13.456;2023-02-01T05:18:56;18.10;88.80
11214;DHT22;5664;48.606;13.456;2023-02-01T05:21:21;17.80;88.70
11214;DHT22;5664;48.606;13.456;2023-02-01T05:23:47;17.70;88.80
11214;DHT22;5664;48.606;13.456;2023-02-01T05:26:31;17.70;88.00
11214;DHT22;5664;48.606;13.456;2023-02-01T05:28:56;18.00;89.00
11214;DHT22;5664;48.606;13.456;2023-02-01T05:31:23;17.90;88.90
11214;DHT22;5664;48.606;13.456;2023-02-01T05:33:48;17.70;89.00
11214;DHT22;5664;48.606;13.456;2023-02-01T05:36:14;17.90;89.40
11214;DHT22;5664;48.606;13.456;2023-02-01T05:38:39;17.70;89.40
11214;DHT22;5664;48.606;13.456;2023-02-01T05:41:05;18.00;89.80
11214;DHT22;5664;48.606;13.456;2023-02-01T05:43:30;18.00;89.90
11214;DHT22;5664;48.606;13.456;2023-02-01T05:45:56;17.70;89.80
11214;DHT22;5664;48.606;13.456;2023-02-01T05:48:21;17.60;89.90
11214;DHT22;5664;48.606;13.456;2023-02-01T05:50:47;17.80;90.00
11214;DHT22;5664;48.606;13.456;2023-02-01T05:53:12;17.90;90.00
11214;DHT22;5664;48.606;13.456;2023-02-01T05:55:38;17.80;90.00
11214;DHT22;5664;48.606;13.456;2023-02-01T05:58:03;17.50;90.00
11214;DHT22;5664;48.606;13.456;2023-02-01T06:00:29;17.50;90.00
11214;DHT22;5664;48.606;13.456;2023-02-01T06:02:54;17.90;90.20
11214;DHT22;5664;48.606;13.456;2023-02-01T06:05:20;17.50;90.20
11214;DHT22;5664;48.606;13.456;2023-02-01T06:07:45;17.50;90.20
11214;DHT22;5664;48.606;13.456;2023-02-01T06:10:11;17.50;90.20
11214;DHT22;5664;48.606;13.456;2023-02-01T06:12:37;17.50;90.30
11214;DHT22;5664;48.606;13.456;2023-02-01T06:15:02;17.50;90.30
11214;DHT22;5664;48.606;13.456;2023-02-01T06:17:28;17.30;90.20
11214;DHT22;5664;48.606;13.456;2023-02-01T06:19:53;17.80;90.50
11214;DHT22;5664;48.606;13.456;2023-02-01T06:22:19;17.80;90.40
11214;DHT22;5664;48.606;13.456;2023-02-01T06:24:45;17.50;90.40
11214;DHT22;5664;48.606;13.456;2023-02-01T06:27:10;17.60;90.50
11214;DHT22;5664;48.606;13.456;2023-02-01T06:29:36;17.60;90.50
11214;DHT22;5664;48.606;13.456;2023-02-01T06:32:01;17.70;90.50
11214;DHT22;5664;48.606;13.456;2023-02-01T06:34:27;17.80;90.50
11214;DHT22;5664;48.606;13.456;2023-02-01T06:36:52;17.50;90.50
11214;DHT22;5664;48.606;13.456;2023-02-01T06:39:20;17.40;90.40
11214;DHT22;5664;48.606;13.456;2023-02-01T06:41:46;17.90;90.60
11214;DHT22;5664;48.606;13.456;2023-02-01T06:44:12;17.70;90.50
11214;DHT22;5664;48.606;13.456;2023-02-01T06:46:37;17.80;90.60
11214;DHT22;5664;48.606;13.456;2023-02-01T06:49:03;17.40;90.60
11214;DHT22;5664;48.606;13.456;2023-02-01T06:51:28;17.20;90.50
11214;DHT22;5664;48.606;13.456;2023-02-01T06:53:54;17.70;90.60
11214;DHT22;5664;48.606;13.456;2023-02-01T06:56:20;17.40;90.60
11214;DHT22;5664;48.606;13.456;2023-02-01T06:58:45;17.60;90.60
11214;DHT22;5664;48.606;13.456;2023-02-01T07:01:11;17.30;90.60
11214;DHT22;5664;48.606;13.456;2023-02-01T07:03:37;17.20;90.50
11214;DHT22;5664;48.606;13.456;2023-02-01T07:06:03;17.40;90.60
11214;DHT22;5664;48.606;13.456;2023-02-01T07:08:33;17.20;90.50
11214;DHT22;5664;48.606;13.456;2023-02-01T07:11:02;17.20;90.20
11214;DHT22;5664;48.606;13.456;2023-02-01T07:13:27;17.20;90.20
11214;DHT22;5664;48.606;13.456;2023-02-01T07:15:53;17.70;90.70
11214;DHT22;5664;48.606;13.456;2023-02-01T07:20:49;17.10;90.20
11214;DHT22;5664;48.606;13.456;2023-02-01T07:23:14;17.50;90.70
11214;DHT22;5664;48.606;13.456;2023-02-01T07:25:40;17.60;90.70
11214;DHT22;5664;48.606;13.456;2023-02-01T07:28:05;17.30;90.60
11214;DHT22;5664;48.606;13.456;2023-02-01T07:30:31;17.10;90.70
11214;DHT22;5664;48.606;13.456;2023-02-01T07:32:56;17.60;90.80
11214;DHT22;5664;48.606;13.456;2023-02-01T07:35:26;17.40;90.70
11214;DHT22;5664;48.606;13.456;2023-02-01T07:37:52;17.70;90.80
11214;DHT22;5664;48.606;13.456;2023-02-01T07:40:17;17.20;90.60
11214;DHT22;5664;48.606;13.456;2023-02-01T07:42:43;17.10;90.60
11214;DHT22;5664;48.606;13.456;2023-02-01T07:45:09;17.40;90.70
11214;DHT22;5664;48.606;13.456;2023-02-01T07:47:34;17.10;90.60
11214;DHT22;5664;48.606;13.456;2023-02-01T07:50:00;17.60;90.80
11214;DHT22;5664;48.606;13.456;2023-02-01T07:52:27;17.40;90.80
11214;DHT22;5664;48.606;13.456;2023-02-01T07:54:52;17.30;90.60
11214;DHT22;5664;48.606;13.456;2023-02-01T07:57:18;17.20;90.70
11214;DHT22;5664;48.606;13.456;2023-02-01T07:59:44;17.20;91.10
11214;DHT22;5664;48.606;13.456;2023-02-01T08:02:28;17.20;90.30
11214;DHT22;5664;48.606;13.456;2023-02-01T08:04:53;17.60;90.80
11214;DHT22;5664;48.606;13.456;2023-02-01T08:07:19;17.20;90.70
11214;DHT22;5664;48.606;13.456;2023-02-01T08:09:44;17.60;90.80
11214;DHT22;5664;48.606;13.456;2023-02-01T08:12:10;17.60;90.70
11214;DHT22;5664;48.606;13.456;2023-02-01T08:14:35;17.60;90.80
11214;DHT22;5664;48.606;13.456;2023-02-01T08:17:00;17.20;90.70
11214;DHT22;5664;48.606;13.456;2023-02-01T08:19:26;17.80;90.90
11214;DHT22;5664;48.606;13.456;2023-02-01T08:21:51;17.20;90.70
11214;DHT22;5664;48.606;13.456;2023-02-01T08:24:17;17.50;90.80
11214;DHT22;5664;48.606;13.456;2023-02-01T08:26:42;17.20;90.70
11214;DHT22;5664;48.606;13.456;2023-02-01T08:29:08;17.20;90.70
11214;DHT22;5664;48.606;13.456;2023-02-01T08:31:34;17.70;90.80
11214;DHT22;5664;48.606;13.456;2023-02-01T08:34:01;17.10;90.70
11214;DHT22;5664;48.606;13.456;2023-02-01T08:36:29;17.50;90.80
11214;DHT22;5664;48.606;13.456;2023-02-01T08:38:55;17.10;90.60
11214;DHT22;5664;48.606;13.456;2023-02-01T08:41:22;17.50;90.80
11214;DHT22;5664;48.606;13.456;2023-02-01T08:43:48;17.20;90.70
11214;DHT22;5664;48.606;13.456;2023-02-01T08:46:13;17.40;93.00
11214;DHT22;5664;48.606;13.456;2023-02-01T08:48:39;17.30;90.70
11214;DHT22;5664;48.606;13.456;2023-02-01T08:51:06;17.20;90.70
11214;DHT22;5664;48.606;13.456;2023-02-01T08:53:32;17.00;90.60
11214;DHT22;5664;48.606;13.456;2023-02-01T08:55:58;17.20;90.70
11214;DHT22;5664;48.606;13.456;2023-02-01T08:58:23;17.50;90.80
11214;DHT22;5664;48.606;13.456;2023-02-01T09:00:49;17.00;90.80
11214;DHT22;5664;48.606;13.456;2023-02-01T09:03:14;17.50;90.90
11214;DHT22;5664;48.606;13.456;2023-02-01T09:05:40;17.30;90.80
11214;DHT22;5664;48.606;13.456;2023-02-01T09:08:06;17.50;90.90
11214;DHT22;5664;48.606;13.456;2023-02-01T09:10:32;17.50;90.80
11214;DHT22;5664;48.606;13.456;2023-02-01T09:12:57;17.30;90.80
11214;DHT22;5664;48.606;13.456;2023-02-01T09:15:23;17.50;90.80
11214;DHT22;5664;48.606;13.456;2023-02-01T09:17:48;17.00;90.70
11214;DHT22;5664;48.606;13.456;2023-02-01T09:20:14;17.40;90.80
11214;DHT22;5664;48.606;13.456;2023-02-01T09:22:39;17.00;90.70
11214;DHT22;5664;48.606;13.456;2023-02-01T09:25:06;17.60;90.90
11214;DHT22;5664;48.606;13.456;2023-02-01T09:27:31;17.00;90.60
11214;DHT22;5664;48.606;13.456;2023-02-01T09:29:57;17.50;91.00
11214;DHT22;5664;48.606;13.456;2023-02-01T09:32:22;17.30;90.90
11214;DHT22;5664;48.606;13.456;2023-02-01T09:34:48;17.20;90.80
11214;DHT22;5664;48.606;13.456;2023-02-01T09:37:14;17.00;90.80
11214;DHT22;5664;48.606;13.456;2023-02-01T09:39:40;17.30;90.80
11214;DHT22;5664;48.606;13.456;2023-02-01T09:47:13;17.00;90.30
11214;DHT22;5664;48.606;13.456;2023-02-01T09:49:43;17.00;90.30
11214;DHT22;5664;48.606;13.456;2023-02-01T09:52:11;17.00;90.70
11214;DHT22;5664;48.606;13.456;2023-02-01T09:54:48;17.40;90.80
11214;DHT22;5664;48.606;13.456;2023-02-01T09:57:19;16.90;90.30
11214;DHT22;5664;48.606;13.456;2023-02-01T09:59:49;16.90;90.30
11214;DHT22;5664;48.606;13.456;2023-02-01T10:02:17;16.80;90.30
11214;DHT22;5664;48.606;13.456;2023-02-01T10:04:44;17.60;90.90
11214;DHT22;5664;48.606;13.456;2023-02-01T10:07:16;17.30;90.80
11214;DHT22;5664;48.606;13.456;2023-02-01T10:14:46;16.90;90.30
11214;DHT22;5664;48.606;13.456;2023-02-01T10:22:10;16.90;90.30
11214;DHT22;5664;48.606;13.456;2023-02-01T10:24:40;17.20;90.80
11214;DHT22;5664;48.606;13.456;2023-02-01T10:29:39;16.90;90.30
11214;DHT22;5664;48.606;13.456;2023-02-01T10:32:20;17.50;90.80
11214;DHT22;5664;48.606;13.456;2023-02-01T10:34:48;16.90;90.30
11214;DHT22;5664;48.606;13.456;2023-02-01T10:37:32;17.30;90.80
11214;DHT22;5664;48.606;13.456;2023-02-01T10:40:19;16.90;90.30
11214;DHT22;5664;48.606;13.456;2023-02-01T10:42:45;17.20;90.80
11214;DHT22;5664;48.606;13.456;2023-02-01T10:45:17;17.30;90.90
11214;DHT22;5664;48.606;13.456;2023-02-01T10:47:43;16.80;90.30
11214;DHT22;5664;48.606;13.456;2023-02-01T10:57:56;16.80;90.40
11214;DHT22;5664;48.606;13.456;2023-02-01T11:00:23;16.80;90.40
11214;DHT22;5664;48.606;13.456;2023-02-01T11:02:48;16.80;90.80
11214;DHT22;5664;48.606;13.456;2023-02-01T11:05:15;17.00;90.90
11214;DHT22;5664;48.606;13.456;2023-02-01T11:07:46;16.80;90.80
11214;DHT22;5664;48.606;13.456;2023-02-01T11:10:34;16.80;90.50
11214;DHT22;5664;48.606;13.456;2023-02-01T11:12:58;17.20;90.90
11214;DHT22;5664;48.606;13.456;2023-02-01T11:15:26;17.00;90.80
11214;DHT22;5664;48.606;13.456;2023-02-01T11:17:52;17.20;91.00
11214;DHT22;5664;48.606;13.456;2023-02-01T11:20:40;17.00;90.80
11214;DHT22;5664;48.606;13.456;2023-02-01T11:23:10;17.10;90.90
11214;DHT22;5664;48.606;13.456;2023-02-01T11:25:38;17.30;91.00
11214;DHT22;5664;48.606;13.456;2023-02-01T11:28:03;17.10;90.90
11214;DHT22;5664;48.606;13.456;2023-02-01T11:30:31;16.80;90.70
11214;DHT22;5664;48.606;13.456;2023-02-01T11:32:58;17.50;91.00
11214;DHT22;5664;48.606;13.456;2023-02-01T11:35:24;17.20;90.90
11214;DHT22;5664;48.606;13.456;2023-02-01T11:37:52;17.20;91.00
11214;DHT22;5664;48.606;13.456;2023-02-01T11:42:58;17.30;90.90
11214;DHT22;5664;48.606;13.456;2023-02-01T11:45:25;16.80;90.40
11214;DHT22;5664;48.606;13.456;2023-02-01T11:47:51;16.80;90.80
11214;DHT22;5664;48.606;13.456;2023-02-01T11:50:19;17.30;91.00
11214;DHT22;5664;48.606;13.456;2023-02-01T11:58:09;16.80;90.50
11214;DHT22;5664;48.606;13.456;2023-02-01T12:15:59;17.10;91.10
11214;DHT22;5664;48.606;13.456;2023-02-01T12:39:15;17.20;92.20
11214;DHT22;5664;48.606;13.456;2023-02-01T12:41:52;17.10;90.70
11214;DHT22;5664;48.606;13.456;2023-02-01T12:46:57;17.30;90.10
11214;DHT22;5664;48.606;13.456;2023-02-01T12:52:02;17.40;90.00
11214;DHT22;5664;48.606;13.456;2023-02-01T12:54:34;17.60;90.30
11214;DHT22;5664;48.606;13.456;2023-02-01T12:57:00;17.70;90.30
11214;DHT22;5664;48.606;13.456;2023-02-01T13:01:58;17.70;89.60
11214;DHT22;5664;48.606;13.456;2023-02-01T13:04:36;17.90;90.10
11214;DHT22;5664;48.606;13.456;2023-02-01T13:07:10;17.80;89.40
11214;DHT22;5664;48.606;13.456;2023-02-01T13:09:47;17.80;89.30
11214;DHT22;5664;48.606;13.456;2023-02-01T13:12:17;17.90;89.00
11214;DHT22;5664;48.606;13.456;2023-02-01T13:14:50;18.10;89.90
11214;DHT22;5664;48.606;13.456;2023-02-01T13:17:19;18.00;89.00
11214;DHT22;5664;48.606;13.456;2023-02-01T13:19:54;18.50;89.90
11214;DHT22;5664;48.606;13.456;2023-02-01T13:22:31;18.10;88.80
11214;DHT22;5664;48.606;13.456;2023-02-01T13:24:58;18.10;88.80
11214;DHT22;5664;48.606;13.456;2023-02-01T13:27:28;18.20;89.60
11214;DHT22;5664;48.606;13.456;2023-02-01T13:38:09;18.80;90.00
11214;DHT22;5664;48.606;13.456;2023-02-01T13:43:09;18.30;88.60
11214;DHT22;5664;48.606;13.456;2023-02-01T13:45:36;18.30;88.50
11214;DHT22;5664;48.606;13.456;2023-02-01T13:48:06;18.40;89.60
11214;DHT22;5664;48.606;13.456;2023-02-01T13:50:40;18.40;89.70
11214;DHT22;5664;48.606;13.456;2023-02-01T13:55:37;18.40;88.80
11214;DHT22;5664;48.606;13.456;2023-02-01T14:00:38;18.80;90.00
11214;DHT22;5664;48.606;13.456;2023-02-01T14:13:29;18.50;88.40
11214;DHT22;5664;48.606;13.456;2023-02-01T14:26:17;18.60;87.90
11214;DHT22;5664;48.606;13.456;2023-02-01T14:28:44;18.70;88.10
11214;DHT22;5664;48.606;13.456;2023-02-01T14:31:14;18.80;89.20
11214;DHT22;5664;48.606;13.456;2023-02-01T14:33:41;18.50;88.00
11214;DHT22;5664;48.606;13.456;2023-02-01T14:36:09;18.80;89.30
11214;DHT22;5664;48.606;13.456;2023-02-01T14:38:36;18.80;89.30
11214;DHT22;5664;48.606;13.456;2023-02-01T14:43:50;18.70;88.50
11214;DHT22;5664;48.606;13.456;2023-02-01T14:46:15;18.70;88.60
11214;DHT22;5664;48.606;13.456;2023-02-01T14:48:42;18.90;89.70
11214;DHT22;5664;48.606;13.456;2023-02-01T14:51:09;19.00;89.60
11214;DHT22;5664;48.606;13.456;2023-02-01T14:53:36;18.90;89.60
11214;DHT22;5664;48.606;13.456;2023-02-01T15:01:05;18.90;89.90
11214;DHT22;5664;48.606;13.456;2023-02-01T15:05:59;18.80;89.20
11214;DHT22;5664;48.606;13.456;2023-02-01T15:08:33;18.80;89.60
11214;DHT22;5664;48.606;13.456;2023-02-01T15:11:00;18.80;90.00
11214;DHT22;5664;48.606;13.456;2023-02-01T15:13:27;18.90;90.00
11214;DHT22;5664;48.606;13.456;2023-02-01T15:16:02;18.90;90.10
11214;DHT22;5664;48.606;13.456;2023-02-01T15:18:28;18.80;89.50
11214;DHT22;5664;48.606;13.456;2023-02-01T15:20:57;18.90;90.10
11214;DHT22;5664;48.606;13.456;2023-02-01T15:23:23;18.80;89.50
11214;DHT22;5664;48.606;13.456;2023-02-01T15:25:49;18.90;90.10
11214;DHT22;5664;48.606;13.456;2023-02-01T15:28:15;18.90;90.40
11214;DHT22;5664;48.606;13.456;2023-02-01T15:30:51;19.10;90.20
11214;DHT22;5664;48.606;13.456;2023-02-01T15:33:17;19.10;90.30
11214;DHT22;5664;48.606;13.456;2023-02-01T15:35:45;18.90;90.20
11214;DHT22;5664;48.606;13.456;2023-02-01T15:43:23;18.80;90.00
11214;DHT22;5664;48.606;13.456;2023-02-01T15:45:49;18.90;90.30
11214;DHT22;5664;48.606;13.456;2023-02-01T15:48:22;18.90;90.40
11214;DHT22;5664;48.606;13.456;2023-02-01T15:50:47;18.80;90.00
11214;DHT22;5664;48.606;13.456;2023-02-01T15:53:18;18.90;90.40
11214;DHT22;5664;48.606;13.456;2023-02-01T15:55:44;18.70;90.00
11214;DHT22;5664;48.606;13.456;2023-02-01T15:58:30;18.80;90.40
11214;DHT22;5664;48.606;13.456;2023-02-01T16:01:00;18.80;90.00
11214;DHT22;5664;48.606;13.456;2023-02-01T16:05:56;18.90;90.50
11214;DHT22;5664;48.606;13.456;2023-02-01T16:08:23;18.70;90.10
11214;DHT22;5664;48.606;13.456;2023-02-01T16:10:49;19.10;90.50
11214;DHT22;5664;48.606;13.456;2023-02-01T16:13:16;18.90;90.50
11214;DHT22;5664;48.606;13.456;2023-02-01T16:15:42;18.80;90.40
11214;DHT22;5664;48.606;13.456;2023-02-01T16:18:07;18.90;90.50
11214;DHT22;5664;48.606;13.456;2023-02-01T16:20:34;18.90;90.50
11214;DHT22;5664;48.606;13.456;2023-02-01T16:23:00;18.90;90.60
11214;DHT22;5664;48.606;13.456;2023-02-01T16:25:26;18.70;90.40
11214;DHT22;5664;48.606;13.456;2023-02-01T16:27:51;18.80;90.50
11214;DHT22;5664;48.606;13.456;2023-02-01T16:30:17;18.70;90.50
11214;DHT22;5664;48.606;13.456;2023-02-01T16:32:57;18.70;90.60
11214;DHT22;5664;48.606;13.456;2023-02-01T16:35:30;18.90;90.60
11214;DHT22;5664;48.606;13.456;2023-02-01T16:38:01;18.70;90.10
11214;DHT22;5664;48.606;13.456;2023-02-01T16:40:27;18.80;90.60
11214;DHT22;5664;48.606;13.456;2023-02-01T16:42:53;19.10;90.70
11214;DHT22;5664;48.606;13.456;2023-02-01T16:45:20;18.90;90.60
11214;DHT22;5664;48.606;13.456;2023-02-01T16:47:48;18.90;90.80
11214;DHT22;5664;48.606;13.456;2023-02-01T16:50:16;18.90;92.80
11214;DHT22;5664;48.606;13.456;2023-02-01T16:52:42;18.70;90.60
11214;DHT22;5664;48.606;13.456;2023-02-01T16:55:12;18.90;90.70
11214;DHT22;5664;48.606;13.456;2023-02-01T16:57:38;18.70;90.20
11214;DHT22;5664;48.606;13.456;2023-02-01T17:00:03;18.90;90.60
11214;DHT22;5664;48.606;13.456;2023-02-01T17:02:29;18.70;90.50
11214;DHT22;5664;48.606;13.456;2023-02-01T17:04:55;18.90;90.70
11214;DHT22;5664;48.606;13.456;2023-02-01T17:07:22;18.70;90.40
11214;DHT22;5664;48.606;13.456;2023-02-01T17:09:48;18.80;90.70
11214;DHT22;5664;48.606;13.456;2023-02-01T17:14:45;18.70;90.30
11214;DHT22;5664;48.606;13.456;2023-02-01T17:17:11;18.80;92.20
11214;DHT22;5664;48.606;13.456;2023-02-01T17:19:36;19.00;90.90
11214;DHT22;5664;48.606;13.456;2023-02-01T17:22:01;18.80;90.80
11214;DHT22;5664;48.606;13.456;2023-02-01T17:24:28;18.80;90.80
11214;DHT22;5664;48.606;13.456;2023-02-01T17:26:54;19.00;90.90
11214;DHT22;5664;48.606;13.456;2023-02-01T17:29:19;18.80;90.90
11214;DHT22;5664;48.606;13.456;2023-02-01T17:31:46;18.30;90.70
11214;DHT22;5664;48.606;13.456;2023-02-01T17:34:12;18.70;90.90
11214;DHT22;5664;48.606;13.456;2023-02-01T17:36:40;18.80;90.80
11214;DHT22;5664;48.606;13.456;2023-02-01T17:39:05;18.80;90.80
11214;DHT22;5664;48.606;13.456;2023-02-01T17:41:31;18.80;90.70
11214;DHT22;5664;48.606;13.456;2023-02-01T17:43:57;18.80;90.60
11214;DHT22;5664;48.606;13.456;2023-02-01T17:46:22;18.70;90.60
11214;DHT22;5664;48.606;13.456;2023-02-01T17:48:51;18.70;90.70
11214;DHT22;5664;48.606;13.456;2023-02-01T17:51:18;18.70;90.70
11214;DHT22;5664;48.606;13.456;2023-02-01T17:53:44;18.70;90.80
11214;DHT22;5664;48.606;13.456;2023-02-01T17:56:14;18.70;90.80
11214;DHT22;5664;48.606;13.456;2023-02-01T17:58:40;18.70;90.80
11214;DHT22;5664;48.606;13.456;2023-02-01T18:01:05;18.70;90.90
11214;DHT22;5664;48.606;13.456;2023-02-01T18:03:31;18.50;90.90
11214;DHT22;5664;48.606;13.456;2023-02-01T18:06:01;19.10;90.80
11214;DHT22;5664;48.606;13.456;2023-02-01T18:08:27;18.50;90.90
11214;DHT22;5664;48.606;13.456;2023-02-01T18:10:57;18.60;91.00
11214;DHT22;5664;48.606;13.456;2023-02-01T18:13:26;18.40;90.60
11214;DHT22;5664;48.606;13.456;2023-02-01T18:15:52;18.90;91.10
11214;DHT22;5664;48.606;13.456;2023-02-01T18:18:17;18.40;91.10